sensor_id;sensor_type;location;lat;lon;timestamp;pressure;altitude;pressure_sealevel;temperature;humidity
7026;BME280;3554;42.132;24.786;2023-01-24T00:00:54;99754.22;;;4.66;100.00
7026;BME280;3554;42.132;24.786;2023-01-24T00:03:21;99767.19;;;4.64;100.00
7026;BME280;3554;42.132;24.786;2023-01-24T00:05:48;99763.69;;;4.67;100.00
7026;BME280;3554;42.132;24.786;2023-01-24T00:08:18;99761.09;;;4.67;100.00
7026;BME280;3554;42.132;24.786;2023-01-24T00:10:45;99766.38;;;4.61;100.00
7026;BME280;3554;42.132;24.786;2023-01-24T00:13:13;99728.59;;;4.37;100.00
7026;BME280;3554;42.132;24.786;2023-01-24T00:15:40;99781.00;;;4.65;100.00
7026;BME280;3554;42.132;24.786;2023-01-24T00:18:07;99779.16;;;4.76;100.00
7026;BME280;3554;42.132;24.786;2023-01-24T00:20:34;99762.16;;;4.49;100.00
7026;BME280;3554;42.132;24.786;2023-01-24T00:23:01;99784.66;;;4.44;100.00
7026;BME280;3554;42.132;24.786;2023-01-24T00:25:29;99747.53;;;4.42;100.00
7026;BME280;3554;42.132;24.786;2023-01-24T00:27:56;99802.69;;;4.59;100.00
7026;BME280;3554;42.132;24.786;2023-01-24T00:30:22;99806.28;;;4.43;100.00
7026;BME280;3554;42.132;24.786;2023-01-24T00:32:49;99803.50;;;4.60;100.00
7026;BME280;3554;42.132;24.786;2023-01-24T00:35:16;99791.41;;;4.62;100.00
7026;BME280;3554;42.132;24.786;2023-01-24T00:37:43;99793.94;;;4.65;100.00
7026;BME280;3554;42.132;24.786;2023-01-24T00:40:10;99780.34;;;4.45;100.00
7026;BME280;3554;42.132;24.786;2023-01-24T00:42:38;99806.16;;;4.52;100.00
7026;BME280;3554;42.132;24.786;2023-01-24T00:45:06;99798.41;;;4.52;100.00
7026;BME280;3554;42.132;24.786;2023-01-24T00:47:33;99812.22;;;4.53;100.00
7026;BME280;3554;42.132;24.786;2023-01-24T00:50:00;99782.97;;;4.40;100.00
7026;BME280;3554;42.132;24.786;2023-01-24T00:52:28;99815.78;;;4.43;100.00
7026;BME280;3554;42.132;24.786;2023-01-24T00:54:55;99804.47;;;4.51;100.00
7026;BME280;3554;42.132;24.786;2023-01-24T00:57:22;99815.72;;;4.50;100.00
7026;BME280;3554;42.132;24.786;2023-01-24T00:59:51;99810.53;;;4.49;100.00
7026;BME280;3554;42.132;24.786;2023-01-24T01:02:17;99819.16;;;4.54;100.00
7026;BME280;3554;42.132;24.786;2023-01-24T01:04:44;99817.34;;;4.60;100.00
7026;BME280;3554;42.132;24.786;2023-01-24T01:07:11;99812.13;;;4.62;100.00
7026;BME280;3554;42.132;24.786;2023-01-24T01:09:38;99820.81;;;4.61;100.00
7026;BME280;3554;42.132;24.786;2023-01-24T01:12:05;99818.22;;;4.61;100.00
7026;BME280;3554;42.132;24.786;2023-01-24T01:14:32;99820.75;;;4.64;100.00
7026;BME280;3554;42.132;24.786;2023-01-24T01:17:00;99818.22;;;4.61;100.00
7026;BME280;3554;42.132;24.786;2023-01-24T01:19:27;99805.22;;;4.62;100.00
7026;BME280;3554;42.132;24.786;2023-01-24T01:21:53;99815.69;;;4.53;100.00
7026;BME280;3554;42.132;24.786;2023-01-24T01:24:20;99819.19;;;4.48;100.00
7026;BME280;3554;42.132;24.786;2023-01-24T01:26:47;99820.94;;;4.44;100.00
7026;BME280;3554;42.132;24.786;2023-01-24T01:29:14;99813.97;;;4.51;100.00
7026;BME280;3554;42.132;24.786;2023-01-24T01:31:41;99827.81;;;4.50;100.00
7026;BME280;3554;42.132;24.786;2023-01-24T01:34:09;99811.41;;;4.49;100.00
7026;BME280;3554;42.132;24.786;2023-01-24T01:36:36;99811.31;;;4.58;100.00
7026;BME280;3554;42.132;24.786;2023-01-24T01:39:03;99807.91;;;4.53;100.00
7026;BME280;3554;42.132;24.786;2023-01-24T01:41:30;99792.34;;;4.53;100.00
7026;BME280;3554;42.132;24.786;2023-01-24T01:46:55;99791.63;;;4.41;100.00
7026;BME280;3554;42.132;24.786;2023-01-24T01:49:25;99808.03;;;4.40;100.00
7026;BME280;3554;42.132;24.786;2023-01-24T01:51:56;99791.78;;;4.22;100.00
7026;BME280;3554;42.132;24.786;2023-01-24T01:54:29;99800.34;;;4.29;100.00
7026;BME280;3554;42.132;24.786;2023-01-24T01:57:00;99819.38;;;4.26;100.00
7026;BME280;3554;42.132;24.786;2023-01-24T01:59:31;99813.31;;;4.27;100.00
7026;BME280;3554;42.132;24.786;2023-01-24T02:01:59;99805.56;;;4.24;100.00
7026;BME280;3554;42.132;24.786;2023-01-24T02:04:31;99808.97;;;4.34;100.00
7026;BME280;3554;42.132;24.786;2023-01-24T02:07:02;99799.47;;;4.30;100.00
7026;BME280;3554;42.132;24.786;2023-01-24T02:09:33;99810.69;;;4.32;100.00
7026;BME280;3554;42.132;24.786;2023-01-24T02:12:03;99809.16;;;4.08;100.00
7026;BME280;3554;42.132;24.786;2023-01-24T02:14:31;99813.44;;;4.12;100.00
7026;BME280;3554;42.132;24.786;2023-01-24T02:17:16;99829.00;;;4.08;100.00
7026;BME280;3554;42.132;24.786;2023-01-24T02:19:57;99816.84;;;4.17;100.00
7026;BME280;3554;42.132;24.786;2023-01-24T02:22:34;99822.94;;;4.12;100.00
7026;BME280;3554;42.132;24.786;2023-01-24T02:25:14;99831.53;;;4.15;100.00
7026;BME280;3554;42.132;24.786;2023-01-24T02:27:44;99832.50;;;4.04;100.00
7026;BME280;3554;42.132;24.786;2023-01-24T02:30:11;99819.56;;;4.02;100.00
7026;BME280;3554;42.132;24.786;2023-01-24T02:32:38;99662.31;;;3.13;100.00
7026;BME280;3554;42.132;24.786;2023-01-24T02:35:06;99833.38;;;4.03;100.00
7026;BME280;3554;42.132;24.786;2023-01-24T02:37:35;99831.63;;;4.05;100.00
7026;BME280;3554;42.132;24.786;2023-01-24T02:40:06;99817.78;;;4.10;100.00
7026;BME280;3554;42.132;24.786;2023-01-24T02:42:36;99796.41;;;3.81;100.00
7026;BME280;3554;42.132;24.786;2023-01-24T02:45:10;99819.56;;;4.02;100.00
7026;BME280;3554;42.132;24.786;2023-01-24T02:47:40;99813.72;;;3.75;100.00
7026;BME280;3554;42.132;24.786;2023-01-24T02:50:09;99811.91;;;3.87;100.00
7026;BME280;3554;42.132;24.786;2023-01-24T02:52:36;99812.72;;;3.92;100.00
7026;BME280;3554;42.132;24.786;2023-01-24T02:55:20;99792.94;;;3.85;100.00
7026;BME280;3554;42.132;24.786;2023-01-24T02:57:47;99814.59;;;3.71;100.00
7026;BME280;3554;42.132;24.786;2023-01-24T03:00:33;99797.28;;;3.82;100.00
7026;BME280;3554;42.132;24.786;2023-01-24T03:03:00;99780.00;;;3.82;100.00
7026;BME280;3554;42.132;24.786;2023-01-24T03:05:28;99780.78;;;3.96;100.00
7026;BME280;3554;42.132;24.786;2023-01-24T03:08:06;99772.16;;;3.93;100.00
7026;BME280;3554;42.132;24.786;2023-01-24T03:10:34;99756.72;;;3.82;100.00
7026;BME280;3554;42.132;24.786;2023-01-24T03:13:00;99755.75;;;3.92;100.00
7026;BME280;3554;42.132;24.786;2023-01-24T03:15:46;99753.22;;;3.88;100.00
7026;BME280;3554;42.132;24.786;2023-01-24T03:18:30;99750.63;;;3.86;100.00
7026;BME280;3554;42.132;24.786;2023-01-24T03:21:14;99738.59;;;3.84;100.00
7026;BME280;3554;42.132;24.786;2023-01-24T03:23:59;99735.06;;;3.91;100.00
7026;BME280;3554;42.132;24.786;2023-01-24T03:26:42;99731.69;;;3.84;100.00
7026;BME280;3554;42.132;24.786;2023-01-24T03:29:27;99724.84;;;3.77;100.00
7026;BME280;3554;42.132;24.786;2023-01-24T03:32:12;99705.03;;;3.69;100.00
7026;BME280;3554;42.132;24.786;2023-01-24T03:34:56;99702.41;;;3.75;100.00
7026;BME280;3554;42.132;24.786;2023-01-24T03:37:24;99702.34;;;3.79;100.00
7026;BME280;3554;42.132;24.786;2023-01-24T03:40:11;99704.13;;;3.76;100.00
7026;BME280;3554;42.132;24.786;2023-01-24T03:42:38;99685.16;;;3.75;100.00
7026;BME280;3554;42.132;24.786;2023-01-24T03:45:12;99698.16;;;3.68;100.00
7026;BME280;3554;42.132;24.786;2023-01-24T03:47:45;99692.22;;;3.55;100.00
7026;BME280;3554;42.132;24.786;2023-01-24T03:50:20;99675.81;;;3.56;100.00
7026;BME280;3554;42.132;24.786;2023-01-24T03:53:05;99673.22;;;3.59;100.00
7026;BME280;3554;42.132;24.786;2023-01-24T03:55:32;99646.44;;;3.60;100.00
7026;BME280;3554;42.132;24.786;2023-01-24T03:57:59;99656.81;;;3.60;100.00
7026;BME280;3554;42.132;24.786;2023-01-24T04:00:26;99654.22;;;3.60;100.00
7026;BME280;3554;42.132;24.786;2023-01-24T04:02:54;99636.88;;;3.71;100.00
7026;BME280;3554;42.132;24.786;2023-01-24T04:05:21;99645.56;;;3.64;100.00
7026;BME280;3554;42.132;24.786;2023-01-24T04:07:48;99639.47;;;3.71;100.00
7026;BME280;3554;42.132;24.786;2023-01-24T04:10:16;99641.25;;;3.65;100.00
7026;BME280;3554;42.132;24.786;2023-01-24T04:12:43;99630.09;;;3.55;100.00
7026;BME280;3554;42.132;24.786;2023-01-24T04:15:15;99646.56;;;3.48;100.00
7026;BME280;3554;42.132;24.786;2023-01-24T04:17:42;99649.09;;;3.56;100.00
7026;BME280;3554;42.132;24.786;2023-01-24T04:20:10;99630.13;;;3.54;100.00
7026;BME280;3554;42.132;24.786;2023-01-24T04:22:38;99630.97;;;3.53;100.00
7026;BME280;3554;42.132;24.786;2023-01-24T04:25:05;99644.81;;;3.50;100.00
7026;BME280;3554;42.132;24.786;2023-01-24T04:27:32;99632.81;;;3.42;100.00
7026;BME280;3554;42.132;24.786;2023-01-24T04:29:59;99633.63;;;3.48;100.00
7026;BME280;3554;42.132;24.786;2023-01-24T04:32:25;99624.09;;;3.53;100.00
7026;BME280;3554;42.132;24.786;2023-01-24T04:34:52;99633.63;;;3.47;100.00
7026;BME280;3554;42.132;24.786;2023-01-24T04:37:20;99603.56;;;3.32;100.00
7026;BME280;3554;42.132;24.786;2023-01-24T04:39:47;99582.06;;;3.24;100.00
7026;BME280;3554;42.132;24.786;2023-01-24T04:42:14;99642.25;;;3.46;100.00
7026;BME280;3554;42.132;24.786;2023-01-24T04:44:41;99640.50;;;3.52;100.00
7026;BME280;3554;42.132;24.786;2023-01-24T04:47:07;99646.53;;;3.50;100.00
7026;BME280;3554;42.132;24.786;2023-01-24T04:49:34;99642.22;;;3.50;100.00
7026;BME280;3554;42.132;24.786;2023-01-24T04:52:01;99654.31;;;3.48;100.00
7026;BME280;3554;42.132;24.786;2023-01-24T04:54:29;99659.53;;;3.45;100.00
7026;BME280;3554;42.132;24.786;2023-01-24T04:56:56;99652.59;;;3.46;100.00
7026;BME280;3554;42.132;24.786;2023-01-24T04:59:23;99662.16;;;3.38;100.00
7026;BME280;3554;42.132;24.786;2023-01-24T05:01:49;99675.13;;;3.32;100.00
7026;BME280;3554;42.132;24.786;2023-01-24T05:04:16;99681.16;;;3.32;100.00
7026;BME280;3554;42.132;24.786;2023-01-24T05:06:43;99676.81;;;3.37;100.00
7026;BME280;3554;42.132;24.786;2023-01-24T05:09:10;99681.13;;;3.40;100.00
7026;BME280;3554;42.132;24.786;2023-01-24T05:11:38;99689.75;;;3.36;100.00
7026;BME280;3554;42.132;24.786;2023-01-24T05:14:07;99696.69;;;3.27;100.00
7026;BME280;3554;42.132;24.786;2023-01-24T05:16:35;99685.53;;;3.25;100.00
7026;BME280;3554;42.132;24.786;2023-01-24T05:19:02;99696.75;;;3.21;100.00
7026;BME280;3554;42.132;24.786;2023-01-24T05:21:28;99701.03;;;3.24;100.00
7026;BME280;3554;42.132;24.786;2023-01-24T05:23:55;99713.94;;;3.35;100.00
7026;BME280;3554;42.132;24.786;2023-01-24T05:26:24;99716.44;;;3.42;100.00
7026;BME280;3554;42.132;24.786;2023-01-24T05:28:53;99724.25;;;3.36;100.00
7026;BME280;3554;42.132;24.786;2023-01-24T05:31:20;99640.97;;;2.81;100.00
7026;BME280;3554;42.132;24.786;2023-01-24T05:33:48;99704.53;;;3.20;100.00
7026;BME280;3554;42.132;24.786;2023-01-24T05:36:16;99739.84;;;3.27;100.00
7026;BME280;3554;42.132;24.786;2023-01-24T05:38:43;99744.16;;;3.25;100.00
7026;BME280;3554;42.132;24.786;2023-01-24T05:41:12;99607.59;;;2.32;100.00
7026;BME280;3554;42.132;24.786;2023-01-24T05:43:41;99755.44;;;3.04;100.00
7026;BME280;3554;42.132;24.786;2023-01-24T05:46:11;99760.59;;;3.04;100.00
7026;BME280;3554;42.132;24.786;2023-01-24T05:48:39;99715.03;;;2.90;100.00
7026;BME280;3554;42.132;24.786;2023-01-24T05:51:07;99764.97;;;3.02;100.00
7026;BME280;3554;42.132;24.786;2023-01-24T05:53:36;99766.66;;;3.05;100.00
7026;BME280;3554;42.132;24.786;2023-01-24T05:56:05;99796.81;;;3.07;100.00
7026;BME280;3554;42.132;24.786;2023-01-24T05:58:34;99798.47;;;3.19;100.00
7026;BME280;3554;42.132;24.786;2023-01-24T06:01:01;99811.50;;;3.02;100.00
7026;BME280;3554;42.132;24.786;2023-01-24T06:03:33;99815.78;;;3.03;100.00
7026;BME280;3554;42.132;24.786;2023-01-24T06:06:00;99821.78;;;3.14;100.00
7026;BME280;3554;42.132;24.786;2023-01-24T06:08:26;99834.72;;;3.08;100.00
7026;BME280;3554;42.132;24.786;2023-01-24T06:10:53;99837.34;;;2.98;100.00
7026;BME280;3554;42.132;24.786;2023-01-24T06:13:20;99859.75;;;3.02;100.00
7026;BME280;3554;42.132;24.786;2023-01-24T06:15:47;99855.41;;;3.10;100.00
7026;BME280;3554;42.132;24.786;2023-01-24T06:18:16;99854.56;;;3.11;100.00
7026;BME280;3554;42.132;24.786;2023-01-24T06:20:46;99853.69;;;3.04;100.00
7026;BME280;3554;42.132;24.786;2023-01-24T06:23:22;99845.91;;;3.18;100.00
7026;BME280;3554;42.132;24.786;2023-01-24T06:25:50;99816.69;;;2.93;100.00
7026;BME280;3554;42.132;24.786;2023-01-24T06:28:18;99873.53;;;3.01;100.00
7026;BME280;3554;42.132;24.786;2023-01-24T06:30:49;99870.09;;;2.94;100.00
7026;BME280;3554;42.132;24.786;2023-01-24T06:33:25;99861.47;;;3.07;100.00
7026;BME280;3554;42.132;24.786;2023-01-24T06:36:10;99838.19;;;3.06;100.00
7026;BME280;3554;42.132;24.786;2023-01-24T06:38:39;99855.38;;;3.17;100.00
7026;BME280;3554;42.132;24.786;2023-01-24T06:41:14;99872.63;;;3.21;100.00
7026;BME280;3554;42.132;24.786;2023-01-24T06:43:42;99885.59;;;3.11;100.00
7026;BME280;3554;42.132;24.786;2023-01-24T06:46:09;99873.50;;;3.16;100.00
7026;BME280;3554;42.132;24.786;2023-01-24T06:48:36;99889.00;;;3.16;100.00
7026;BME280;3554;42.132;24.786;2023-01-24T06:51:04;99846.88;;;2.88;100.00
7026;BME280;3554;42.132;24.786;2023-01-24T06:53:32;99889.84;;;3.22;100.00
7026;BME280;3554;42.132;24.786;2023-01-24T06:55:58;99897.69;;;2.91;100.00
7026;BME280;3554;42.132;24.786;2023-01-24T06:58:25;99913.19;;;3.06;100.00
7026;BME280;3554;42.132;24.786;2023-01-24T07:00:52;99912.31;;;2.95;100.00
7026;BME280;3554;42.132;24.786;2023-01-24T07:03:19;99917.47;;;3.05;100.00
7026;BME280;3554;42.132;24.786;2023-01-24T07:05:47;99918.28;;;3.30;100.00
7026;BME280;3554;42.132;24.786;2023-01-24T07:08:15;99914.81;;;3.34;100.00
7026;BME280;3554;42.132;24.786;2023-01-24T07:10:45;99895.03;;;3.21;100.00
7026;BME280;3554;42.132;24.786;2023-01-24T07:13:12;99916.53;;;3.35;100.00
7026;BME280;3554;42.132;24.786;2023-01-24T07:15:38;99934.63;;;3.37;100.00
7026;BME280;3554;42.132;24.786;2023-01-24T07:18:06;99945.00;;;3.32;100.00
7026;BME280;3554;42.132;24.786;2023-01-24T07:20:34;99952.78;;;3.20;100.00
7026;BME280;3554;42.132;24.786;2023-01-24T07:23:01;99961.41;;;3.22;100.00
7026;BME280;3554;42.132;24.786;2023-01-24T07:25:31;99972.59;;;3.35;100.00
7026;BME280;3554;42.132;24.786;2023-01-24T07:28:00;99995.03;;;3.07;100.00
7026;BME280;3554;42.132;24.786;2023-01-24T07:30:27;100007.97;;;2.99;100.00
7026;BME280;3554;42.132;24.786;2023-01-24T07:32:54;100014.88;;;3.05;100.00
7026;BME280;3554;42.132;24.786;2023-01-24T07:35:21;100023.50;;;3.05;100.00
7026;BME280;3554;42.132;24.786;2023-01-24T07:37:48;100021.78;;;3.15;100.00
7026;BME280;3554;42.132;24.786;2023-01-24T07:40:15;100019.16;;;3.03;100.00
7026;BME280;3554;42.132;24.786;2023-01-24T07:42:43;100037.28;;;3.27;100.00
7026;BME280;3554;42.132;24.786;2023-01-24T07:45:10;100045.03;;;3.38;100.00
7026;BME280;3554;42.132;24.786;2023-01-24T07:47:37;100045.88;;;3.35;100.00
7026;BME280;3554;42.132;24.786;2023-01-24T07:50:04;100040.72;;;3.20;100.00
7026;BME280;3554;42.132;24.786;2023-01-24T07:52:31;100040.72;;;3.23;100.00
7026;BME280;3554;42.132;24.786;2023-01-24T07:54:58;100086.41;;;3.33;100.00
7026;BME280;3554;42.132;24.786;2023-01-24T07:57:25;100052.78;;;3.13;100.00
7026;BME280;3554;42.132;24.786;2023-01-24T07:59:53;100085.53;;;3.29;100.00
7026;BME280;3554;42.132;24.786;2023-01-24T08:02:20;100076.94;;;3.29;100.00
7026;BME280;3554;42.132;24.786;2023-01-24T08:04:47;100100.19;;;3.46;100.00
7026;BME280;3554;42.132;24.786;2023-01-24T08:07:13;100115.72;;;3.23;100.00
7026;BME280;3554;42.132;24.786;2023-01-24T08:09:43;100095.88;;;3.39;100.00
7026;BME280;3554;42.132;24.786;2023-01-24T08:12:10;100100.19;;;3.37;100.00
7026;BME280;3554;42.132;24.786;2023-01-24T08:14:37;100109.69;;;3.41;100.00
7026;BME280;3554;42.132;24.786;2023-01-24T08:17:05;100089.88;;;3.41;100.00
7026;BME280;3554;42.132;24.786;2023-01-24T08:19:32;100079.50;;;3.34;100.00
7026;BME280;3554;42.132;24.786;2023-01-24T08:22:01;100082.09;;;3.46;100.00
7026;BME280;3554;42.132;24.786;2023-01-24T08:24:28;100081.22;;;3.57;100.00
7026;BME280;3554;42.132;24.786;2023-01-24T08:26:54;100071.72;;;3.77;100.00
7026;BME280;3554;42.132;24.786;2023-01-24T08:29:21;100071.72;;;3.79;100.00
7026;BME280;3554;42.132;24.786;2023-01-24T08:31:48;100071.69;;;3.89;100.00
7026;BME280;3554;42.132;24.786;2023-01-24T08:34:16;100073.41;;;3.83;100.00
7026;BME280;3554;42.132;24.786;2023-01-24T08:36:43;100054.41;;;3.91;100.00
7026;BME280;3554;42.132;24.786;2023-01-24T08:39:09;100056.19;;;3.68;100.00
7026;BME280;3554;42.132;24.786;2023-01-24T08:41:36;100058.81;;;3.40;100.00
7026;BME280;3554;42.132;24.786;2023-01-24T08:44:03;100036.41;;;3.45;100.00
7026;BME280;3554;42.132;24.786;2023-01-24T08:46:30;100016.50;;;3.63;100.00
7026;BME280;3554;42.132;24.786;2023-01-24T08:48:58;99995.78;;;3.75;100.00
7026;BME280;3554;42.132;24.786;2023-01-24T08:51:26;99992.34;;;3.72;100.00
7026;BME280;3554;42.132;24.786;2023-01-24T08:53:52;99989.75;;;3.60;100.00
7026;BME280;3554;42.132;24.786;2023-01-24T08:56:19;99990.66;;;3.44;100.00
7026;BME280;3554;42.132;24.786;2023-01-24T08:58:46;99966.44;;;3.69;100.00
7026;BME280;3554;42.132;24.786;2023-01-24T09:01:13;99961.25;;;3.73;100.00
7026;BME280;3554;42.132;24.786;2023-01-24T09:03:39;99967.41;;;3.33;100.00
7026;BME280;3554;42.132;24.786;2023-01-24T09:06:06;99957.09;;;3.19;100.00
7026;BME280;3554;42.132;24.786;2023-01-24T09:08:34;99946.78;;;3.15;100.00
7026;BME280;3554;42.132;24.786;2023-01-24T09:11:01;99945.00;;;3.35;100.00
7026;BME280;3554;42.132;24.786;2023-01-24T09:13:28;99923.47;;;3.35;100.00
7026;BME280;3554;42.132;24.786;2023-01-24T09:15:57;99917.34;;;3.48;100.00
7026;BME280;3554;42.132;24.786;2023-01-24T09:18:24;99755.56;;;2.77;100.00
7026;BME280;3554;42.132;24.786;2023-01-24T09:20:51;99911.28;;;3.59;100.00
7026;BME280;3554;42.132;24.786;2023-01-24T09:23:18;99893.25;;;3.37;100.00
7026;BME280;3554;42.132;24.786;2023-01-24T09:25:51;99892.28;;;3.65;100.00
7026;BME280;3554;42.132;24.786;2023-01-24T09:28:18;99880.03;;;3.98;100.00
7026;BME280;3554;42.132;24.786;2023-01-24T09:30:47;99871.31;;;4.07;100.00
7026;BME280;3554;42.132;24.786;2023-01-24T09:33:14;99872.25;;;3.95;100.00
7026;BME280;3554;42.132;24.786;2023-01-24T09:35:42;99856.72;;;3.97;100.00
7026;BME280;3554;42.132;24.786;2023-01-24T09:38:09;99845.63;;;3.72;100.00
7026;BME280;3554;42.132;24.786;2023-01-24T09:40:43;99855.31;;;3.37;100.00
7026;BME280;3554;42.132;24.786;2023-01-24T09:43:23;99808.72;;;3.39;100.00
7026;BME280;3554;42.132;24.786;2023-01-24T09:46:00;99831.91;;;3.58;100.00
7026;BME280;3554;42.132;24.786;2023-01-24T09:48:32;99819.84;;;3.57;100.00
7026;BME280;3554;42.132;24.786;2023-01-24T09:51:02;99820.69;;;3.61;100.00
7026;BME280;3554;42.132;24.786;2023-01-24T09:53:39;99785.41;;;3.51;100.00
7026;BME280;3554;42.132;24.786;2023-01-24T09:56:10;99798.13;;;3.82;100.00
7026;BME280;3554;42.132;24.786;2023-01-24T09:58:41;99786.78;;;4.01;100.00
7026;BME280;3554;42.132;24.786;2023-01-24T10:01:11;99851.53;;;4.00;100.00
7026;BME280;3554;42.132;24.786;2023-01-24T10:03:39;99890.47;;;3.80;100.00
7026;BME280;3554;42.132;24.786;2023-01-24T10:06:13;99892.97;;;3.94;100.00
7026;BME280;3554;42.132;24.786;2023-01-24T10:08:45;99944.72;;;4.04;100.00
7026;BME280;3554;42.132;24.786;2023-01-24T10:11:23;99987.94;;;3.90;100.00
7026;BME280;3554;42.132;24.786;2023-01-24T10:14:10;100001.75;;;3.97;100.00
7026;BME280;3554;42.132;24.786;2023-01-24T10:16:56;100004.13;;;4.39;100.00
7026;BME280;3554;42.132;24.786;2023-01-24T10:19:41;99955.84;;;4.18;100.00
7026;BME280;3554;42.132;24.786;2023-01-24T10:22:24;99999.72;;;4.50;100.00
7026;BME280;3554;42.132;24.786;2023-01-24T10:24:59;99973.13;;;4.19;100.00
7026;BME280;3554;42.132;24.786;2023-01-24T10:27:30;99967.19;;;4.04;100.00
7026;BME280;3554;42.132;24.786;2023-01-24T10:30:05;99949.88;;;4.09;100.00
7026;BME280;3554;42.132;24.786;2023-01-24T10:32:39;99908.19;;;4.47;100.00
7026;BME280;3554;42.132;24.786;2023-01-24T10:35:12;99889.19;;;4.42;100.00
7026;BME280;3554;42.132;24.786;2023-01-24T10:37:43;99822.97;;;4.09;100.00
7026;BME280;3554;42.132;24.786;2023-01-24T10:40:12;99841.63;;;4.52;100.00
7026;BME280;3554;42.132;24.786;2023-01-24T10:42:39;99813.22;;;4.38;100.00
7026;BME280;3554;42.132;24.786;2023-01-24T10:45:34;99776.91;;;4.44;100.00
7026;BME280;3554;42.132;24.786;2023-01-24T10:48:04;99780.25;;;4.55;100.00
7026;BME280;3554;42.132;24.786;2023-01-24T10:50:41;99785.38;;;4.60;100.00
7026;BME280;3554;42.132;24.786;2023-01-24T10:53:13;99780.28;;;4.51;100.00
7026;BME280;3554;42.132;24.786;2023-01-24T10:55:41;99759.41;;;4.66;100.00
7026;BME280;3554;42.132;24.786;2023-01-24T10:58:22;99723.88;;;4.72;100.00
7026;BME280;3554;42.132;24.786;2023-01-24T11:00:57;99676.09;;;4.91;100.00
7026;BME280;3554;42.132;24.786;2023-01-24T11:03:28;99635.13;;;4.54;100.00
7026;BME280;3554;42.132;24.786;2023-01-24T11:05:57;99589.31;;;4.57;100.00
7026;BME280;3554;42.132;24.786;2023-01-24T11:08:25;99544.97;;;4.13;100.00
7026;BME280;3554;42.132;24.786;2023-01-24T11:10:54;99490.16;;;4.43;100.00
7026;BME280;3554;42.132;24.786;2023-01-24T11:13:28;99449.94;;;4.74;100.00
7026;BME280;3554;42.132;24.786;2023-01-24T11:16:02;99391.59;;;4.49;100.00
7026;BME280;3554;42.132;24.786;2023-01-24T11:18:31;99301.41;;;4.69;100.00
7026;BME280;3554;42.132;24.786;2023-01-24T11:21:12;99184.41;;;4.86;100.00
7026;BME280;3554;42.132;24.786;2023-01-24T11:23:41;99136.28;;;4.73;100.00
7026;BME280;3554;42.132;24.786;2023-01-24T11:26:21;99048.28;;;4.67;100.00
7026;BME280;3554;42.132;24.786;2023-01-24T11:28:59;99019.00;;;5.00;100.00
7026;BME280;3554;42.132;24.786;2023-01-24T11:31:31;98969.84;;;4.95;100.00
7026;BME280;3554;42.132;24.786;2023-01-24T11:34:26;98927.66;;;4.89;100.00
7026;BME280;3554;42.132;24.786;2023-01-24T11:37:05;98884.38;;;4.92;100.00
7026;BME280;3554;42.132;24.786;2023-01-24T11:39:43;98846.31;;;5.25;100.00
7026;BME280;3554;42.132;24.786;2023-01-24T11:42:19;98807.56;;;5.19;100.00
7026;BME280;3554;42.132;24.786;2023-01-24T11:45:02;98772.28;;;5.13;100.00
7026;BME280;3554;42.132;24.786;2023-01-24T11:47:38;98744.25;;;4.95;100.00
7026;BME280;3554;42.132;24.786;2023-01-24T11:50:26;98674.13;;;5.00;100.00
7026;BME280;3554;42.132;24.786;2023-01-24T11:53:12;98630.66;;;5.08;100.00
7026;BME280;3554;42.132;24.786;2023-01-24T11:55:53;98578.66;;;5.12;100.00
7026;BME280;3554;42.132;24.786;2023-01-24T11:58:52;98526.53;;;5.20;100.00
7026;BME280;3554;42.132;24.786;2023-01-24T12:01:28;98477.13;;;5.24;100.00
7026;BME280;3554;42.132;24.786;2023-01-24T12:04:13;98436.28;;;5.05;100.00
7026;BME280;3554;42.132;24.786;2023-01-24T12:06:45;98420.28;;;4.92;100.00
7026;BME280;3554;42.132;24.786;2023-01-24T12:09:18;98340.44;;;4.77;100.00
7026;BME280;3554;42.132;24.786;2023-01-24T12:11:57;98295.38;;;4.57;100.00
7026;BME280;3554;42.132;24.786;2023-01-24T12:20:26;98140.38;;;5.35;100.00
7026;BME280;3554;42.132;24.786;2023-01-24T12:23:01;98083.88;;;4.99;100.00
7026;BME280;3554;42.132;24.786;2023-01-24T12:25:32;98134.25;;;5.58;100.00
7026;BME280;3554;42.132;24.786;2023-01-24T12:28:04;98157.91;;;5.51;100.00
7026;BME280;3554;42.132;24.786;2023-01-24T12:30:33;98151.50;;;5.59;100.00
7026;BME280;3554;42.132;24.786;2023-01-24T12:33:08;98181.31;;;5.71;100.00
7026;BME280;3554;42.132;24.786;2023-01-24T12:35:43;98210.81;;;5.68;100.00
7026;BME280;3554;42.132;24.786;2023-01-24T12:38:17;98245.91;;;5.57;100.00
7026;BME280;3554;42.132;24.786;2023-01-24T12:40:52;98292.94;;;5.47;100.00
7026;BME280;3554;42.132;24.786;2023-01-24T12:43:31;98328.66;;;5.41;100.00
7026;BME280;3554;42.132;24.786;2023-01-24T12:46:08;98400.91;;;5.28;100.00
7026;BME280;3554;42.132;24.786;2023-01-24T12:48:41;98411.78;;;5.13;100.00
7026;BME280;3554;42.132;24.786;2023-01-24T12:51:19;98424.19;;;5.30;100.00
7026;BME280;3554;42.132;24.786;2023-01-24T12:53:57;98428.63;;;5.26;100.00
7026;BME280;3554;42.132;24.786;2023-01-24T12:56:31;98342.72;;;5.11;100.00
7026;BME280;3554;42.132;24.786;2023-01-24T12:59:00;98434.28;;;5.62;100.00
7026;BME280;3554;42.132;24.786;2023-01-24T13:01:40;98500.56;;;5.21;100.00
7026;BME280;3554;42.132;24.786;2023-01-24T13:04:19;98467.97;;;5.39;100.00
7026;BME280;3554;42.132;24.786;2023-01-24T13:07:02;98489.47;;;5.67;100.00
7026;BME280;3554;42.132;24.786;2023-01-24T13:09:36;98527.09;;;5.54;100.00
7026;BME280;3554;42.132;24.786;2023-01-24T13:12:12;98542.41;;;5.37;100.00
7026;BME280;3554;42.132;24.786;2023-01-24T13:14:45;98540.25;;;5.50;100.00
7026;BME280;3554;42.132;24.786;2023-01-24T13:17:25;98551.00;;;5.64;100.00
7026;BME280;3554;42.132;24.786;2023-01-24T13:20:04;98575.38;;;5.33;100.00
7026;BME280;3554;42.132;24.786;2023-01-24T13:22:50;98628.47;;;5.76;100.00
7026;BME280;3554;42.132;24.786;2023-01-24T13:25:30;98711.69;;;5.16;100.00
7026;BME280;3554;42.132;24.786;2023-01-24T13:28:04;98679.50;;;5.23;100.00
7026;BME280;3554;42.132;24.786;2023-01-24T13:30:43;98714.88;;;5.24;100.00
7026;BME280;3554;42.132;24.786;2023-01-24T13:33:15;98697.75;;;5.47;100.00
7026;BME280;3554;42.132;24.786;2023-01-24T13:35:48;98737.69;;;5.42;100.00
7026;BME280;3554;42.132;24.786;2023-01-24T13:38:21;98755.59;;;5.51;100.00